Time;durP1;ratioP1;P1;durP2;ratioP2;P2;SDS_P1;SDS_P2;PMS_P1;PMS_P2;Temp;Humidity;BMP_temperature;BMP_pressure;BME280_temperature;BME280_humidity;BME280_pressure;Samples;Min_cycle;Max_cycle;Signal;HPM_P1;HPM_P2
2023/08/19 00:02:04;;;;;;;15.80;10.57;;;24.20;95.50;;;;;;5114785;28;20020;-72
2023/08/19 00:04:29;;;;;;;11.43;10.23;;;24.20;95.60;;;;;;5096400;28;20391;-72
2023/08/19 00:06:55;;;;;;;12.70;9.93;;;24.20;95.60;;;;;;5114259;28;20062;-71
2023/08/19 00:09:21;;;;;;;13.48;10.38;;;24.20;95.60;;;;;;5114593;28;20024;-71
2023/08/19 00:11:47;;;;;;;13.95;10.32;;;24.10;95.80;;;;;;5114034;28;20100;-72
2023/08/19 00:14:12;;;;;;;11.85;9.63;;;24.00;96.00;;;;;;5114248;28;20467;-71
2023/08/19 00:16:38;;;;;;;11.25;9.98;;;24.00;96.00;;;;;;5113964;28;20096;-71
2023/08/19 00:19:04;;;;;;;10.32;9.13;;;24.00;96.20;;;;;;5114409;28;20468;-71
2023/08/19 00:21:29;;;;;;;12.00;9.63;;;24.00;96.30;;;;;;5114311;28;20055;-71
2023/08/19 00:23:56;;;;;;;10.57;9.48;;;23.90;96.20;;;;;;5113820;28;20305;-71
2023/08/19 00:26:22;;;;;;;15.52;9.98;;;23.90;96.30;;;;;;5114169;28;20024;-71
2023/08/19 00:28:47;;;;;;;11.15;10.07;;;23.90;96.60;;;;;;5113867;28;20152;-72
2023/08/19 00:31:13;;;;;;;12.05;10.48;;;23.90;97.00;;;;;;5114157;28;20080;-71
2023/08/19 00:33:39;;;;;;;10.77;9.68;;;23.80;97.40;;;;;;5113497;28;20063;-72
2023/08/19 00:36:05;;;;;;;11.43;10.15;;;23.70;97.50;;;;;;5114012;28;20026;-72
2023/08/19 00:38:30;;;;;;;14.27;10.10;;;23.70;97.50;;;;;;5113767;28;20032;-71
2023/08/19 00:40:56;;;;;;;12.40;9.73;;;23.70;97.60;;;;;;5113240;28;20053;-71
2023/08/19 00:43:22;;;;;;;13.00;10.00;;;23.70;97.80;;;;;;5114748;27;20039;-71
2023/08/19 00:45:49;;;;;;;11.52;10.32;;;23.70;98.00;;;;;;5133979;27;20023;-72
2023/08/19 00:48:17;;;;;;;16.30;11.38;;;23.70;97.90;;;;;;5134215;27;20023;-71
2023/08/19 00:50:44;;;;;;;14.63;10.55;;;23.70;98.10;;;;;;5133707;27;20058;-72
2023/08/19 00:53:12;;;;;;;13.65;10.77;;;23.60;98.30;;;;;;5134240;27;20031;-71
2023/08/19 00:55:37;;;;;;;13.30;10.38;;;23.60;98.30;;;;;;5134038;27;20016;-71
2023/08/19 00:58:03;;;;;;;12.05;10.82;;;23.60;98.50;;;;;;5134232;27;20030;-71
2023/08/19 01:00:31;;;;;;;13.48;10.73;;;23.60;98.50;;;;;;5134236;27;20046;-71
2023/08/19 01:02:58;;;;;;;13.27;10.70;;;23.60;98.50;;;;;;5133642;27;20031;-72
2023/08/19 01:05:36;;;;;;;12.00;10.57;;;23.50;98.60;;;;;;5134090;27;20027;-71
2023/08/19 01:08:03;;;;;;;14.82;10.75;;;23.50;98.70;;;;;;5133680;27;20038;-72
2023/08/19 01:10:39;;;;;;;12.73;10.27;;;23.50;98.90;;;;;;5134021;27;20114;-71
2023/08/19 01:13:14;;;;;;;12.90;10.75;;;23.50;98.90;;;;;;5134105;27;20035;-71
2023/08/19 01:15:57;;;;;;;12.68;11.32;;;23.40;99.20;;;;;;5118167;27;20063;-72
2023/08/19 01:18:24;;;;;;;13.05;10.77;;;23.40;99.20;;;;;;5113353;28;20030;-71
2023/08/19 01:20:52;;;;;;;17.75;11.13;;;23.40;99.40;;;;;;5112654;28;20361;-71
2023/08/19 01:23:30;;;;;;;13.82;10.95;;;23.40;99.40;;;;;;5113227;28;20028;-71
2023/08/19 01:25:56;;;;;;;13.63;10.73;;;23.40;99.60;;;;;;5113010;28;20027;-71
2023/08/19 01:28:22;;;;;;;13.80;10.95;;;23.40;99.90;;;;;;5113167;28;20032;-71
2023/08/19 01:30:47;;;;;;;20.88;12.18;;;23.40;99.70;;;;;;5112593;28;20107;-71
2023/08/19 01:33:13;;;;;;;12.52;10.60;;;23.40;99.60;;;;;;5112919;28;20490;-71
2023/08/19 01:36:07;;;;;;;12.05;10.45;;;23.40;99.80;;;;;;5113433;28;20031;-71
2023/08/19 01:38:35;;;;;;;12.65;10.52;;;23.40;99.90;;;;;;5112917;28;20387;-70
2023/08/19 01:41:03;;;;;;;17.00;11.48;;;23.40;99.90;;;;;;5112411;28;20211;-70
2023/08/19 01:43:30;;;;;;;17.05;11.90;;;23.30;99.90;;;;;;5113008;28;20028;-70
2023/08/19 01:45:56;;;;;;;15.10;11.80;;;23.30;99.90;;;;;;5112719;28;20023;-71
2023/08/19 01:48:22;;;;;;;13.63;11.85;;;23.30;99.90;;;;;;5113037;28;20055;-70
2023/08/19 01:50:47;;;;;;;12.48;11.10;;;23.30;99.90;;;;;;5112855;28;20472;-70
2023/08/19 01:53:13;;;;;;;14.75;12.50;;;23.20;99.90;;;;;;5116781;28;20077;-71
2023/08/19 01:55:39;;;;;;;12.90;11.60;;;23.20;99.90;;;;;;5116808;28;20102;-71
2023/08/19 01:58:04;;;;;;;15.02;11.30;;;23.20;99.90;;;;;;5117024;28;20026;-71
2023/08/19 02:00:30;;;;;;;15.30;11.82;;;23.20;99.90;;;;;;5117016;28;20035;-70
2023/08/19 02:02:55;;;;;;;12.93;11.52;;;23.20;99.90;;;;;;5116766;28;20123;-70
2023/08/19 02:05:21;;;;;;;13.48;11.75;;;23.10;99.90;;;;;;5116925;28;20429;-72
2023/08/19 02:07:47;;;;;;;12.13;10.43;;;23.10;99.90;;;;;;5098298;28;20031;-72
2023/08/19 02:10:12;;;;;;;12.02;10.75;;;23.10;99.90;;;;;;5117014;28;20527;-72
2023/08/19 02:12:38;;;;;;;12.55;11.00;;;23.20;99.90;;;;;;5098693;28;20024;-71
2023/08/19 02:15:04;;;;;;;11.70;10.30;;;23.10;99.90;;;;;;5116477;28;20464;-70
2023/08/19 02:17:30;;;;;;;13.55;10.70;;;23.10;99.90;;;;;;5116766;28;20031;-72
2023/08/19 02:19:55;;;;;;;17.17;11.43;;;23.10;99.90;;;;;;5116344;28;20031;-70
2023/08/19 02:22:21;;;;;;;11.43;10.32;;;23.10;99.90;;;;;;5116952;28;20036;-70
2023/08/19 02:24:47;;;;;;;15.00;10.20;;;23.10;99.90;;;;;;5116091;28;20067;-70
2023/08/19 02:27:13;;;;;;;15.10;10.80;;;23.00;99.90;;;;;;5116569;28;20038;-71
2023/08/19 02:29:38;;;;;;;14.32;10.52;;;23.00;99.90;;;;;;5116572;28;20027;-72
2023/08/19 02:32:05;;;;;;;11.90;10.65;;;23.00;99.90;;;;;;5116172;28;20708;-72
2023/08/19 02:34:30;;;;;;;14.35;10.98;;;23.00;99.90;;;;;;5116393;28;20039;-71
2023/08/19 02:36:56;;;;;;;11.98;9.93;;;23.00;99.90;;;;;;5116111;28;20028;-69
2023/08/19 02:39:22;;;;;;;14.00;12.60;;;22.90;99.90;;;;;;5116229;28;20027;-70
2023/08/19 02:41:47;;;;;;;12.57;11.20;;;22.90;99.90;;;;;;5135409;27;20027;-71
2023/08/19 02:44:13;;;;;;;12.98;11.68;;;22.90;99.90;;;;;;5136783;27;20043;-70
2023/08/19 02:46:38;;;;;;;16.33;12.18;;;22.90;99.90;;;;;;5136777;27;20027;-72
2023/08/19 02:49:04;;;;;;;14.18;11.13;;;22.90;99.90;;;;;;5136183;27;20058;-72
2023/08/19 02:51:30;;;;;;;13.85;12.27;;;22.90;99.90;;;;;;5136431;27;20023;-72
2023/08/19 02:53:55;;;;;;;14.75;12.82;;;22.90;99.90;;;;;;5136267;27;20110;-70
2023/08/19 02:56:21;;;;;;;14.00;12.60;;;22.90;99.90;;;;;;5117881;27;20475;-72
2023/08/19 02:58:47;;;;;;;16.42;12.90;;;22.90;99.90;;;;;;5136166;27;20019;-75
2023/08/19 03:01:15;;;;;;;15.15;12.32;;;22.80;99.90;;;;;;5136159;27;20130;-71
2023/08/19 03:03:41;;;;;;;13.77;12.32;;;22.80;99.90;;;;;;5135770;27;20382;-71
2023/08/19 03:06:07;;;;;;;15.15;13.55;;;22.80;99.90;;;;;;5136008;27;20233;-71
2023/08/19 03:08:32;;;;;;;14.85;12.93;;;22.80;99.90;;;;;;5136336;27;20031;-71
2023/08/19 03:10:58;;;;;;;14.50;13.07;;;22.80;99.90;;;;;;5135954;27;20023;-71
2023/08/19 03:13:24;;;;;;;22.15;13.40;;;22.80;99.90;;;;;;5117877;27;20035;-73
2023/08/19 03:15:49;;;;;;;14.30;12.98;;;22.80;99.90;;;;;;5135843;27;20081;-71
2023/08/19 03:18:15;;;;;;;14.57;13.00;;;22.80;99.90;;;;;;5136217;27;20023;-71
2023/08/19 03:20:42;;;;;;;17.88;13.40;;;22.70;99.90;;;;;;5135864;27;20027;-71
2023/08/19 03:23:07;;;;;;;15.30;13.40;;;22.70;99.90;;;;;;5118878;27;20112;-71
2023/08/19 03:25:33;;;;;;;16.25;12.60;;;22.70;99.90;;;;;;5096878;28;20031;-71
2023/08/19 03:27:58;;;;;;;15.40;13.20;;;22.60;99.90;;;;;;5115059;28;20028;-72
2023/08/19 03:30:24;;;;;;;20.67;12.75;;;22.60;99.90;;;;;;5115085;28;20383;-71
2023/08/19 03:32:50;;;;;;;14.90;13.18;;;22.50;99.90;;;;;;5114922;28;20027;-72
2023/08/19 03:35:15;;;;;;;14.85;13.23;;;22.50;99.90;;;;;;5115326;28;20051;-71
2023/08/19 03:37:41;;;;;;;14.63;13.13;;;22.50;99.90;;;;;;5115284;28;20032;-71
2023/08/19 03:40:07;;;;;;;14.93;13.35;;;22.40;99.90;;;;;;5114695;28;20030;-70
2023/08/19 03:42:33;;;;;;;17.08;13.80;;;22.40;99.90;;;;;;5115362;28;20508;-71
2023/08/19 03:44:59;;;;;;;20.23;13.85;;;22.40;99.90;;;;;;5114835;28;20118;-70
2023/08/19 03:47:24;;;;;;;16.13;13.40;;;22.30;99.90;;;;;;5115312;28;20030;-71
2023/08/19 03:49:50;;;;;;;15.55;13.25;;;22.30;99.90;;;;;;5114903;28;20115;-70
2023/08/19 03:52:16;;;;;;;14.70;13.00;;;22.30;99.90;;;;;;5114775;28;20031;-71
2023/08/19 03:54:41;;;;;;;16.08;13.45;;;22.30;99.90;;;;;;5114980;28;20027;-71
2023/08/19 03:57:07;;;;;;;17.40;12.93;;;22.30;99.90;;;;;;5096083;28;20044;-71
2023/08/19 03:59:33;;;;;;;16.20;12.85;;;22.30;99.90;;;;;;5115082;28;20104;-71
2023/08/19 04:01:58;;;;;;;16.05;13.70;;;22.30;99.90;;;;;;5114384;28;20045;-71
2023/08/19 04:04:24;;;;;;;15.88;13.10;;;22.30;99.90;;;;;;5114619;28;20048;-71
2023/08/19 04:06:50;;;;;;;14.13;12.52;;;22.30;99.90;;;;;;5114474;28;20023;-70
2023/08/19 04:09:15;;;;;;;12.68;11.38;;;22.30;99.90;;;;;;5114150;28;20036;-70
2023/08/19 04:11:41;;;;;;;13.23;11.23;;;22.30;99.90;;;;;;5114547;28;20072;-70
2023/08/19 04:14:07;;;;;;;12.32;11.23;;;22.30;99.90;;;;;;5113376;28;20038;-70
2023/08/19 04:16:32;;;;;;;13.27;10.90;;;22.30;99.90;;;;;;5114491;28;20046;-70
2023/08/19 04:18:58;;;;;;;11.90;10.73;;;22.30;99.90;;;;;;5113917;28;20502;-70
2023/08/19 04:21:24;;;;;;;12.93;11.00;;;22.30;99.90;;;;;;5114384;28;20103;-70
2023/08/19 04:23:50;;;;;;;12.88;11.00;;;22.30;99.90;;;;;;5114233;28;20075;-70
2023/08/19 04:26:15;;;;;;;14.20;11.10;;;22.30;99.90;;;;;;5113813;28;20055;-71
2023/08/19 04:28:41;;;;;;;13.60;11.48;;;22.20;99.90;;;;;;5113926;28;20496;-72
2023/08/19 04:31:08;;;;;;;12.25;10.18;;;22.20;99.90;;;;;;5113717;28;20119;-72
2023/08/19 04:33:35;;;;;;;12.93;11.50;;;22.30;99.90;;;;;;5095895;28;20028;-71
2023/08/19 04:36:02;;;;;;;12.60;11.38;;;22.30;99.90;;;;;;5113757;28;20119;-72
2023/08/19 04:38:28;;;;;;;13.75;10.63;;;22.30;99.90;;;;;;5114058;28;20359;-72
2023/08/19 04:40:54;;;;;;;12.95;11.52;;;22.30;99.90;;;;;;5114014;28;20023;-71
2023/08/19 04:43:20;;;;;;;12.85;11.50;;;22.30;99.90;;;;;;5113901;28;20165;-71
2023/08/19 04:45:46;;;;;;;14.45;11.68;;;22.30;99.90;;;;;;5113642;28;20023;-70
2023/08/19 04:48:11;;;;;;;14.88;12.13;;;22.30;99.90;;;;;;5117117;27;20037;-72
2023/08/19 04:50:37;;;;;;;12.57;11.32;;;22.40;99.90;;;;;;5134677;27;20100;-71
2023/08/19 04:53:03;;;;;;;12.60;11.30;;;22.40;99.90;;;;;;5133837;27;20029;-72
2023/08/19 04:55:29;;;;;;;12.43;11.13;;;22.50;99.90;;;;;;5134241;27;20035;-71
2023/08/19 04:57:55;;;;;;;12.90;11.60;;;22.50;99.90;;;;;;5133852;27;20102;-71
2023/08/19 05:00:21;;;;;;;12.05;10.95;;;22.60;99.90;;;;;;5133538;27;20047;-71
2023/08/19 05:02:50;;;;;;;16.10;12.07;;;22.60;99.90;;;;;;5134053;27;20019;-71
2023/08/19 05:05:16;;;;;;;13.00;11.63;;;22.60;99.90;;;;;;5134057;27;20230;-71
2023/08/19 05:07:41;;;;;;;12.43;11.13;;;22.60;99.90;;;;;;5134361;27;20118;-71
2023/08/19 05:10:08;;;;;;;11.82;10.63;;;22.70;99.90;;;;;;5133642;27;20026;-71
2023/08/19 05:12:34;;;;;;;13.25;11.85;;;22.70;99.90;;;;;;5134069;27;20075;-71
2023/08/19 05:15:00;;;;;;;13.07;11.88;;;22.70;99.90;;;;;;5133284;27;20035;-72
2023/08/19 05:17:25;;;;;;;14.65;12.93;;;22.80;99.90;;;;;;5133990;27;20023;-71
2023/08/19 05:19:51;;;;;;;14.32;12.80;;;22.80;99.90;;;;;;5133561;27;20490;-71
2023/08/19 05:22:17;;;;;;;15.95;13.10;;;22.80;99.90;;;;;;5115090;27;20259;-71
2023/08/19 05:24:42;;;;;;;14.27;12.82;;;22.80;99.90;;;;;;5133781;27;20034;-71
2023/08/19 05:27:08;;;;;;;16.65;13.10;;;22.80;99.90;;;;;;5133382;27;20024;-71
2023/08/19 05:29:33;;;;;;;14.85;12.73;;;22.90;99.90;;;;;;5133570;27;20519;-71
2023/08/19 05:31:59;;;;;;;15.45;13.07;;;22.90;99.90;;;;;;5096050;28;20114;-71
2023/08/19 05:34:25;;;;;;;15.45;13.85;;;23.00;99.90;;;;;;5113202;28;20084;-71
2023/08/19 05:36:51;;;;;;;16.20;14.65;;;23.10;99.90;;;;;;5113165;28;20115;-71
2023/08/19 05:39:17;;;;;;;16.55;14.02;;;23.10;99.90;;;;;;5113100;28;20072;-71
2023/08/19 05:41:42;;;;;;;16.73;14.93;;;23.20;99.90;;;;;;5113311;28;20027;-71
2023/08/19 05:44:08;;;;;;;16.67;14.70;;;23.30;99.90;;;;;;5112594;28;20123;-71
2023/08/19 05:46:34;;;;;;;17.70;15.20;;;23.40;99.90;;;;;;5113134;28;20024;-71
2023/08/19 05:49:00;;;;;;;15.52;13.93;;;23.50;99.90;;;;;;5112484;28;20460;-75
2023/08/19 05:51:26;;;;;;;17.92;14.52;;;23.70;99.90;;;;;;5113156;28;20024;-71
2023/08/19 05:53:58;;;;;;;17.40;14.88;;;23.90;99.90;;;;;;5113074;28;20468;-71
2023/08/19 05:56:24;;;;;;;18.50;14.48;;;24.10;99.90;;;;;;5112670;28;20035;-70
2023/08/19 05:58:49;;;;;;;22.20;14.68;;;24.30;99.90;;;;;;5113045;28;20020;-70
2023/08/19 06:01:15;;;;;;;15.73;14.13;;;24.70;99.90;;;;;;5112493;28;20416;-71
2023/08/19 06:03:41;;;;;;;15.45;13.65;;;25.00;99.90;;;;;;5112473;28;20028;-70
2023/08/19 06:06:07;;;;;;;16.25;14.27;;;25.30;98.90;;;;;;5112458;28;20050;-71
2023/08/19 06:08:33;;;;;;;14.35;12.85;;;25.70;97.70;;;;;;5112727;28;20027;-70
2023/08/19 06:11:02;;;;;;;15.18;13.32;;;26.20;96.10;;;;;;5112917;28;20112;-70
2023/08/19 06:13:29;;;;;;;15.00;12.77;;;26.90;94.30;;;;;;5113115;28;20035;-70
2023/08/19 06:15:55;;;;;;;13.27;11.65;;;27.50;92.40;;;;;;5112856;28;20019;-71
2023/08/19 06:18:21;;;;;;;13.00;11.80;;;28.20;90.50;;;;;;5112147;28;20115;-71
2023/08/19 06:20:49;;;;;;;13.13;11.43;;;28.70;87.40;;;;;;5112573;28;20328;-70
2023/08/19 06:23:14;;;;;;;12.45;11.27;;;28.70;83.60;;;;;;5112307;28;20040;-71
2023/08/19 06:25:40;;;;;;;13.35;11.48;;;28.50;84.90;;;;;;5112519;28;20038;-70
2023/08/19 06:28:05;;;;;;;13.90;11.85;;;28.80;83.50;;;;;;5112498;28;20368;-71
2023/08/19 06:30:31;;;;;;;12.95;11.23;;;28.90;82.70;;;;;;5112703;28;20024;-72
2023/08/19 06:32:57;;;;;;;14.45;11.73;;;28.90;82.50;;;;;;5112329;28;20365;-71
2023/08/19 06:35:23;;;;;;;11.23;10.18;;;28.90;81.70;;;;;;5112461;28;20083;-71
2023/08/19 06:37:54;;;;;;;12.23;11.13;;;29.00;80.20;;;;;;5113822;28;20024;-71
2023/08/19 06:40:21;;;;;;;11.65;10.45;;;29.10;79.40;;;;;;5122230;27;20023;-71
2023/08/19 06:42:49;;;;;;;12.45;10.50;;;29.20;79.00;;;;;;5136661;27;20375;-71
2023/08/19 06:45:16;;;;;;;11.45;9.77;;;29.50;78.30;;;;;;5136447;27;20097;-71
2023/08/19 06:47:45;;;;;;;11.18;9.18;;;29.70;76.90;;;;;;5136921;27;20019;-71
2023/08/19 06:50:12;;;;;;;12.57;10.40;;;30.10;76.80;;;;;;5135890;27;20051;-72
2023/08/19 06:52:38;;;;;;;11.95;9.60;;;30.40;74.90;;;;;;5136756;27;20114;-72
2023/08/19 06:55:05;;;;;;;11.43;9.93;;;30.60;73.40;;;;;;5136495;27;20492;-75
2023/08/19 06:57:39;;;;;;;9.50;8.52;;;31.00;71.80;;;;;;5136463;27;20047;-72
2023/08/19 07:00:09;;;;;;;10.30;8.20;;;31.40;69.90;;;;;;5136243;27;20027;-73
2023/08/19 07:02:38;;;;;;;9.73;7.97;;;31.90;68.70;;;;;;5135977;27;20054;-71
2023/08/19 07:05:13;;;;;;;8.48;7.65;;;32.50;65.90;;;;;;5136333;27;20085;-72
2023/08/19 07:07:46;;;;;;;7.57;6.88;;;33.10;63.90;;;;;;5136468;27;20027;-72
2023/08/19 07:10:15;;;;;;;9.93;6.97;;;33.70;62.20;;;;;;5135979;27;20034;-72
2023/08/19 07:12:41;;;;;;;7.68;7.03;;;34.40;59.80;;;;;;5136445;27;20091;-72
2023/08/19 07:15:12;;;;;;;9.80;6.50;;;35.10;57.60;;;;;;5135779;27;20049;-72
2023/08/19 07:17:39;;;;;;;8.38;7.00;;;35.80;56.80;;;;;;5136301;27;20029;-72
2023/08/19 07:20:08;;;;;;;8.15;6.63;;;36.30;54.30;;;;;;5135788;27;20031;-72
2023/08/19 07:22:37;;;;;;;11.30;6.53;;;37.00;53.20;;;;;;5136067;27;20057;-72
2023/08/19 07:25:04;;;;;;;6.82;6.10;;;37.50;51.70;;;;;;5123384;27;20063;-72
2023/08/19 07:27:33;;;;;;;8.88;5.80;;;37.90;51.40;;;;;;5114703;28;20107;-71
2023/08/19 07:30:01;;;;;;;9.25;5.75;;;38.40;49.50;;;;;;5115490;28;20023;-71
2023/08/19 07:32:27;;;;;;;7.70;5.68;;;38.70;48.20;;;;;;5114889;28;20087;-71
2023/08/19 07:34:53;;;;;;;6.68;6.05;;;38.80;47.20;;;;;;5115326;28;20031;-70
2023/08/19 07:37:20;;;;;;;6.57;5.82;;;38.90;46.70;;;;;;5114805;28;20033;-71
2023/08/19 07:39:45;;;;;;;6.28;5.30;;;39.30;46.40;;;;;;5115050;28;20482;-71
2023/08/19 07:42:11;;;;;;;6.25;5.47;;;39.60;46.40;;;;;;5114814;28;20023;-71
2023/08/19 07:44:36;;;;;;;5.75;5.13;;;39.80;45.50;;;;;;5115094;28;20114;-71
2023/08/19 07:47:02;;;;;;;6.32;5.72;;;40.20;45.70;;;;;;5096838;28;20031;-71
2023/08/19 07:49:28;;;;;;;9.13;5.43;;;40.70;43.90;;;;;;5113403;28;20108;-71
2023/08/19 07:51:53;;;;;;;5.70;4.90;;;40.90;42.90;;;;;;5115089;28;20042;-71
2023/08/19 07:54:21;;;;;;;5.90;5.15;;;41.10;42.60;;;;;;5114547;28;20031;-71
2023/08/19 07:56:47;;;;;;;7.32;4.97;;;41.30;42.50;;;;;;5114644;28;20028;-70
2023/08/19 07:59:12;;;;;;;4.97;4.55;;;41.30;41.60;;;;;;5114356;28;20035;-71
2023/08/19 08:01:38;;;;;;;7.40;5.15;;;41.50;41.50;;;;;;5114713;28;20483;-71
2023/08/19 08:04:04;;;;;;;7.53;5.22;;;41.60;41.10;;;;;;5114619;28;20064;-71
2023/08/19 08:06:30;;;;;;;7.20;5.00;;;41.80;41.30;;;;;;5114227;28;20031;-71
2023/08/19 08:08:56;;;;;;;5.97;5.38;;;42.00;40.50;;;;;;5114415;28;20035;-71
2023/08/19 08:11:21;;;;;;;7.65;4.80;;;42.10;40.10;;;;;;5114527;28;20038;-70
2023/08/19 08:13:47;;;;;;;8.40;5.10;;;42.20;40.00;;;;;;5114228;28;20027;-71
2023/08/19 08:16:12;;;;;;;6.60;4.90;;;42.10;39.70;;;;;;5113690;28;20031;-71
2023/08/19 08:18:38;;;;;;;6.03;5.53;;;41.80;39.80;;;;;;5114745;28;20024;-71
2023/08/19 08:21:04;;;;;;;6.00;4.97;;;41.70;40.60;;;;;;5096110;28;20032;-71
2023/08/19 08:23:29;;;;;;;7.13;5.57;;;41.80;40.20;;;;;;5095633;28;20028;-70
2023/08/19 08:25:55;;;;;;;6.32;4.95;;;41.30;39.50;;;;;;5114266;28;20039;-71
2023/08/19 08:28:21;;;;;;;6.15;4.70;;;41.00;40.70;;;;;;5114048;28;20102;-71
2023/08/19 08:30:46;;;;;;;6.32;5.25;;;40.70;40.50;;;;;;5114107;28;20024;-71
2023/08/19 08:33:12;;;;;;;9.23;4.60;;;40.30;40.20;;;;;;5113680;28;20031;-72
2023/08/19 08:35:38;;;;;;;7.63;4.95;;;40.20;41.10;;;;;;5114180;28;20024;-70
2023/08/19 08:38:04;;;;;;;5.38;4.80;;;39.90;41.70;;;;;;5114048;28;20378;-70
2023/08/19 08:40:33;;;;;;;7.00;5.28;;;39.50;41.80;;;;;;5113686;28;20019;-70
2023/08/19 08:43:02;;;;;;;6.13;5.25;;;39.20;42.80;;;;;;5113886;28;20422;-70
2023/08/19 08:45:31;;;;;;;5.57;4.80;;;38.50;43.00;;;;;;5113526;28;20063;-70
2023/08/19 08:47:56;;;;;;;7.88;5.68;;;38.50;43.30;;;;;;5113995;28;20024;-70
2023/08/19 08:50:22;;;;;;;5.28;4.78;;;38.30;43.20;;;;;;5118764;27;20047;-71
2023/08/19 08:52:49;;;;;;;8.18;5.18;;;38.10;44.30;;;;;;5134458;27;20039;-71
2023/08/19 08:55:15;;;;;;;5.82;5.32;;;37.80;44.30;;;;;;5134261;27;20028;-71
2023/08/19 08:57:41;;;;;;;5.30;4.80;;;37.50;45.00;;;;;;5134272;27;20027;-71
2023/08/19 09:00:10;;;;;;;6.22;5.15;;;37.20;45.20;;;;;;5134029;27;20085;-71
2023/08/19 09:02:36;;;;;;;5.50;4.78;;;36.70;45.70;;;;;;5133308;27;20019;-71
2023/08/19 09:05:05;;;;;;;5.72;5.22;;;36.60;46.10;;;;;;5134112;27;20066;-71
2023/08/19 09:07:40;;;;;;;5.90;5.28;;;36.40;46.40;;;;;;5133711;27;20027;-72
2023/08/19 09:10:18;;;;;;;5.55;4.90;;;36.20;46.70;;;;;;5134148;27;20023;-70
2023/08/19 09:12:49;;;;;;;6.85;5.55;;;36.10;47.50;;;;;;5134018;27;20097;-72
2023/08/19 09:15:17;;;;;;;6.65;5.28;;;36.10;48.40;;;;;;5133658;27;20027;-73
2023/08/19 09:17:44;;;;;;;5.18;4.68;;;35.90;48.60;;;;;;5133623;27;20019;-70
2023/08/19 09:20:12;;;;;;;7.45;4.55;;;35.60;48.90;;;;;;5133645;27;20380;-71
2023/08/19 09:22:42;;;;;;;7.95;5.20;;;35.60;49.70;;;;;;5133334;27;20015;-72
2023/08/19 09:25:12;;;;;;;7.15;5.45;;;35.50;49.00;;;;;;5133925;27;20114;-71
2023/08/19 09:27:38;;;;;;;7.18;5.38;;;35.20;49.70;;;;;;5133148;27;20031;-70
2023/08/19 09:30:04;;;;;;;8.43;5.88;;;34.90;50.10;;;;;;5133547;27;20080;-70
2023/08/19 09:32:35;;;;;;;6.65;5.22;;;34.30;51.30;;;;;;5133373;27;20027;-71
2023/08/19 09:35:05;;;;;;;9.30;5.55;;;34.30;52.60;;;;;;5124212;27;20024;-70
2023/08/19 09:37:31;;;;;;;;;;;34.20;52.30;;;;;;5113276;28;20031;-70
2023/08/19 09:39:57;;;;;;;6.22;5.60;;;34.10;52.90;;;;;;5113233;28;19904;-70
2023/08/19 09:42:23;;;;;;;6.40;5.45;;;34.00;52.60;;;;;;5112768;28;20030;-70
2023/08/19 09:44:49;;;;;;;6.72;6.13;;;34.00;53.20;;;;;;5112950;28;20024;-70
2023/08/19 09:47:14;;;;;;;8.00;5.65;;;33.90;52.90;;;;;;5112685;28;20387;-70
2023/08/19 09:49:40;;;;;;;7.88;6.05;;;33.80;53.60;;;;;;5112814;28;20081;-70
2023/08/19 09:52:14;;;;;;;7.47;5.88;;;33.80;54.20;;;;;;5113049;28;20081;-70
2023/08/19 09:54:40;;;;;;;7.88;7.07;;;33.90;54.50;;;;;;5112274;28;20027;-71
2023/08/19 09:57:06;;;;;;;8.77;5.68;;;33.90;53.70;;;;;;5112994;28;20027;-71
2023/08/19 09:59:31;;;;;;;6.97;6.07;;;33.90;53.90;;;;;;5112323;28;20472;-71
2023/08/19 10:01:59;;;;;;;7.85;6.03;;;33.80;53.20;;;;;;5113083;28;20103;-71
2023/08/19 10:04:25;;;;;;;8.85;5.75;;;33.70;54.70;;;;;;5094278;28;20116;-71
2023/08/19 10:06:51;;;;;;;7.70;5.60;;;33.80;54.00;;;;;;5112989;28;20118;-70
2023/08/19 10:09:24;;;;;;;8.30;6.50;;;33.60;54.60;;;;;;5112973;28;20375;-71
2023/08/19 10:11:52;;;;;;;6.25;5.28;;;33.70;55.70;;;;;;5112978;28;20106;-71
2023/08/19 10:14:26;;;;;;;6.57;5.78;;;33.80;56.00;;;;;;5116817;28;20491;-70
2023/08/19 10:16:53;;;;;;;8.75;6.43;;;33.80;53.90;;;;;;5117409;28;20034;-70
2023/08/19 10:19:22;;;;;;;8.23;6.10;;;33.80;54.60;;;;;;5098656;28;20468;-71
2023/08/19 10:21:50;;;;;;;7.57;6.05;;;33.90;54.50;;;;;;5116876;28;20019;-71
2023/08/19 10:24:17;;;;;;;10.23;6.85;;;34.00;54.50;;;;;;5116767;28;20032;-72
2023/08/19 10:26:49;;;;;;;7.25;6.00;;;34.00;53.80;;;;;;5116367;28;20084;-72
2023/08/19 10:29:15;;;;;;;7.30;6.60;;;33.90;53.50;;;;;;5116553;28;20027;-72
2023/08/19 10:31:42;;;;;;;8.05;6.57;;;33.60;53.90;;;;;;5116326;28;20383;-72
2023/08/19 10:34:23;;;;;;;8.77;6.07;;;33.60;54.70;;;;;;5116680;28;20076;-71
2023/08/19 10:37:28;;;;;;;7.10;6.45;;;33.50;54.10;;;;;;5116744;28;20098;-71
2023/08/19 10:40:07;;;;;;;7.90;7.07;;;33.20;54.20;;;;;;5033450;28;20466;-71
2023/08/19 10:42:32;;;;;;;8.85;6.82;;;32.80;55.00;;;;;;5108286;28;20043;-70
2023/08/19 10:44:58;;;;;;;8.98;6.55;;;32.60;55.40;;;;;;5115769;28;20028;-70
2023/08/19 10:47:23;;;;;;;7.60;6.78;;;32.50;55.60;;;;;;5118963;27;20030;-70
2023/08/19 10:49:49;;;;;;;8.45;6.40;;;32.40;56.10;;;;;;5136733;27;20399;-70
2023/08/19 10:52:21;;;;;;;8.13;6.70;;;32.30;56.80;;;;;;5136719;27;20072;-69
2023/08/19 10:54:47;;;;;;;9.23;6.40;;;32.20;58.10;;;;;;5136395;27;20027;-70
2023/08/19 10:57:17;;;;;;;9.13;7.30;;;32.30;57.30;;;;;;5136406;27;20379;-71
2023/08/19 10:59:47;;;;;;;9.63;6.65;;;32.20;57.70;;;;;;5136507;27;20443;-71
2023/08/19 11:02:14;;;;;;;8.20;6.78;;;32.20;57.90;;;;;;5118325;27;20031;-71
2023/08/19 11:04:41;;;;;;;8.50;6.75;;;32.30;57.90;;;;;;5135819;27;20360;-70
2023/08/19 11:07:07;;;;;;;7.78;7.00;;;32.40;57.90;;;;;;5136468;27;20035;-70
2023/08/19 11:09:33;;;;;;;8.75;6.60;;;32.50;57.80;;;;;;5136015;27;20180;-71
2023/08/19 11:11:58;;;;;;;6.93;6.10;;;32.60;57.30;;;;;;5136519;27;20035;-71
2023/08/19 11:14:25;;;;;;;6.55;5.88;;;32.70;56.70;;;;;;5135966;27;20028;-71
2023/08/19 11:16:55;;;;;;;7.43;6.47;;;32.80;57.20;;;;;;5136115;27;20027;-70
2023/08/19 11:19:22;;;;;;;7.95;6.38;;;32.90;56.90;;;;;;5136463;27;20027;-71
2023/08/19 11:21:49;;;;;;;6.82;6.13;;;32.80;55.20;;;;;;5135866;27;20020;-71
2023/08/19 11:24:15;;;;;;;7.20;6.50;;;32.70;55.80;;;;;;5135890;27;20027;-70
2023/08/19 11:26:45;;;;;;;10.48;7.35;;;32.60;55.20;;;;;;5135703;27;20031;-72
2023/08/19 11:29:11;;;;;;;9.00;6.50;;;32.30;55.90;;;;;;5136064;27;20031;-71
2023/08/19 11:31:38;;;;;;;7.00;5.75;;;32.20;56.40;;;;;;5135581;27;20114;-71
2023/08/19 11:34:13;;;;;;;9.48;6.40;;;32.30;56.70;;;;;;5135871;27;20034;-71
2023/08/19 11:36:40;;;;;;;8.15;6.57;;;32.30;56.30;;;;;;5134953;27;20364;-71
2023/08/19 11:39:07;;;;;;;9.43;6.13;;;32.30;55.90;;;;;;5135870;27;20101;-71
2023/08/19 11:41:34;;;;;;;6.65;6.05;;;32.40;55.70;;;;;;5135412;27;20031;-71
2023/08/19 11:44:02;;;;;;;9.40;6.30;;;32.50;56.10;;;;;;5135038;27;20023;-71
2023/08/19 11:46:29;;;;;;;6.85;5.93;;;32.50;54.90;;;;;;5116849;27;20031;-72
2023/08/19 11:48:57;;;;;;;8.18;6.50;;;32.50;55.60;;;;;;5114688;28;20055;-71
2023/08/19 11:51:27;;;;;;;10.00;6.22;;;32.50;55.70;;;;;;5115132;28;20032;-71
2023/08/19 11:53:54;;;;;;;7.32;6.63;;;32.60;55.50;;;;;;5115377;28;20039;-71
2023/08/19 11:56:21;;;;;;;8.63;6.13;;;32.60;55.80;;;;;;5115007;28;20031;-71
2023/08/19 11:58:51;;;;;;;6.93;6.20;;;32.80;55.70;;;;;;5114449;28;20032;-71
2023/08/19 12:01:17;;;;;;;8.20;6.20;;;32.80;55.60;;;;;;5114901;28;20023;-71
2023/08/19 12:03:45;;;;;;;7.10;6.28;;;32.90;55.70;;;;;;5114370;28;20028;-71
2023/08/19 12:06:11;;;;;;;8.85;6.50;;;33.00;54.10;;;;;;5114877;28;20088;-71
2023/08/19 12:08:47;;;;;;;7.20;6.10;;;33.00;53.60;;;;;;5114320;28;20023;-71
2023/08/19 12:11:14;;;;;;;6.78;6.13;;;32.90;53.10;;;;;;5114876;28;20027;-71
2023/08/19 12:13:39;;;;;;;6.28;5.68;;;32.90;53.90;;;;;;5114241;28;20035;-71
2023/08/19 12:16:07;;;;;;;6.78;6.07;;;32.90;53.30;;;;;;5114757;28;20020;-71
2023/08/19 12:18:34;;;;;;;6.20;5.55;;;32.80;53.00;;;;;;5114202;28;20031;-72
2023/08/19 12:21:03;;;;;;;8.68;6.20;;;32.70;53.40;;;;;;5114410;28;20023;-70
2023/08/19 12:23:29;;;;;;;7.30;6.60;;;32.70;53.00;;;;;;5114022;28;20102;-71
2023/08/19 12:25:57;;;;;;;7.20;6.20;;;32.60;53.10;;;;;;5114159;28;20471;-70
2023/08/19 12:28:23;;;;;;;6.63;5.70;;;32.60;53.70;;;;;;5114141;28;20396;-70
2023/08/19 12:30:49;;;;;;;6.63;6.03;;;32.50;53.60;;;;;;5113844;28;20330;-70
2023/08/19 12:33:17;;;;;;;8.02;6.20;;;32.40;53.50;;;;;;5114112;28;20077;-70
2023/08/19 12:35:46;;;;;;;9.60;6.13;;;32.30;53.30;;;;;;5113218;28;20055;-70